sensor_id;sensor_type;location;lat;lon;timestamp;P1;durP1;ratioP1;P2;durP2;ratioP2
809;SDS011;387;48.772;9.186;2023-12-29T00:01:57;5.03;;;2.80;;
809;SDS011;387;48.772;9.186;2023-12-29T00:04:24;4.30;;;2.70;;
809;SDS011;387;48.772;9.186;2023-12-29T00:06:50;4.07;;;2.90;;
809;SDS011;387;48.772;9.186;2023-12-29T00:09:16;5.83;;;3.37;;
809;SDS011;387;48.772;9.186;2023-12-29T00:11:42;4.93;;;3.37;;
809;SDS011;387;48.772;9.186;2023-12-29T00:14:08;4.60;;;2.87;;
809;SDS011;387;48.772;9.186;2023-12-29T00:16:33;4.00;;;2.60;;
809;SDS011;387;48.772;9.186;2023-12-29T00:18:59;7.13;;;2.97;;
809;SDS011;387;48.772;9.186;2023-12-29T00:21:24;3.53;;;2.80;;
809;SDS011;387;48.772;9.186;2023-12-29T00:23:50;7.00;;;3.67;;
809;SDS011;387;48.772;9.186;2023-12-29T00:26:16;4.00;;;3.07;;
809;SDS011;387;48.772;9.186;2023-12-29T00:28:43;7.47;;;3.37;;
809;SDS011;387;48.772;9.186;2023-12-29T00:31:09;5.17;;;3.43;;
809;SDS011;387;48.772;9.186;2023-12-29T00:33:44;4.90;;;3.20;;
809;SDS011;387;48.772;9.186;2023-12-29T00:36:16;4.10;;;3.17;;
809;SDS011;387;48.772;9.186;2023-12-29T00:38:42;4.20;;;2.60;;
809;SDS011;387;48.772;9.186;2023-12-29T00:41:07;8.57;;;3.77;;
809;SDS011;387;48.772;9.186;2023-12-29T00:43:34;4.40;;;3.13;;
809;SDS011;387;48.772;9.186;2023-12-29T00:46:03;5.03;;;3.17;;
809;SDS011;387;48.772;9.186;2023-12-29T00:48:32;4.40;;;3.10;;
809;SDS011;387;48.772;9.186;2023-12-29T00:51:00;8.57;;;2.87;;
809;SDS011;387;48.772;9.186;2023-12-29T00:53:26;5.60;;;3.13;;
809;SDS011;387;48.772;9.186;2023-12-29T00:55:54;6.00;;;3.60;;
809;SDS011;387;48.772;9.186;2023-12-29T00:58:19;4.60;;;2.87;;
809;SDS011;387;48.772;9.186;2023-12-29T01:00:45;6.23;;;2.67;;
809;SDS011;387;48.772;9.186;2023-12-29T01:03:10;4.37;;;2.93;;
809;SDS011;387;48.772;9.186;2023-12-29T01:05:36;5.80;;;3.03;;
809;SDS011;387;48.772;9.186;2023-12-29T01:08:01;6.53;;;3.03;;
809;SDS011;387;48.772;9.186;2023-12-29T01:10:27;5.13;;;3.00;;
809;SDS011;387;48.772;9.186;2023-12-29T01:12:53;8.20;;;3.23;;
809;SDS011;387;48.772;9.186;2023-12-29T01:15:18;8.70;;;2.93;;
809;SDS011;387;48.772;9.186;2023-12-29T01:17:44;6.43;;;3.20;;
809;SDS011;387;48.772;9.186;2023-12-29T01:20:09;4.40;;;2.90;;
809;SDS011;387;48.772;9.186;2023-12-29T01:22:35;5.60;;;3.60;;
809;SDS011;387;48.772;9.186;2023-12-29T01:25:01;6.60;;;3.70;;
809;SDS011;387;48.772;9.186;2023-12-29T01:27:27;5.83;;;2.90;;
809;SDS011;387;48.772;9.186;2023-12-29T01:29:54;8.80;;;3.60;;
809;SDS011;387;48.772;9.186;2023-12-29T01:32:21;4.40;;;3.13;;
809;SDS011;387;48.772;9.186;2023-12-29T01:34:47;4.83;;;3.20;;
809;SDS011;387;48.772;9.186;2023-12-29T01:37:12;6.40;;;3.60;;
809;SDS011;387;48.772;9.186;2023-12-29T01:39:38;5.37;;;3.03;;
809;SDS011;387;48.772;9.186;2023-12-29T01:42:05;10.00;;;3.87;;
809;SDS011;387;48.772;9.186;2023-12-29T01:44:31;7.37;;;3.37;;
809;SDS011;387;48.772;9.186;2023-12-29T01:47:00;6.00;;;3.40;;
809;SDS011;387;48.772;9.186;2023-12-29T01:49:27;4.80;;;3.00;;
809;SDS011;387;48.772;9.186;2023-12-29T01:51:55;4.50;;;3.00;;
809;SDS011;387;48.772;9.186;2023-12-29T01:54:30;6.17;;;3.60;;
809;SDS011;387;48.772;9.186;2023-12-29T01:56:59;5.33;;;3.50;;
809;SDS011;387;48.772;9.186;2023-12-29T01:59:27;5.87;;;3.47;;
809;SDS011;387;48.772;9.186;2023-12-29T02:01:54;7.07;;;3.80;;
809;SDS011;387;48.772;9.186;2023-12-29T02:04:20;6.10;;;3.40;;
809;SDS011;387;48.772;9.186;2023-12-29T02:06:50;8.20;;;3.80;;
809;SDS011;387;48.772;9.186;2023-12-29T02:09:17;5.40;;;3.70;;
809;SDS011;387;48.772;9.186;2023-12-29T02:11:43;5.83;;;4.10;;
809;SDS011;387;48.772;9.186;2023-12-29T02:14:10;6.30;;;3.77;;
809;SDS011;387;48.772;9.186;2023-12-29T02:19:40;3.90;;;2.97;;
809;SDS011;387;48.772;9.186;2023-12-29T02:22:09;4.83;;;3.30;;
809;SDS011;387;48.772;9.186;2023-12-29T02:24:35;5.27;;;3.13;;
809;SDS011;387;48.772;9.186;2023-12-29T02:30:23;6.17;;;3.47;;
809;SDS011;387;48.772;9.186;2023-12-29T02:33:01;4.60;;;3.00;;
809;SDS011;387;48.772;9.186;2023-12-29T02:35:31;7.33;;;4.00;;
809;SDS011;387;48.772;9.186;2023-12-29T02:38:00;6.77;;;3.80;;
809;SDS011;387;48.772;9.186;2023-12-29T02:40:26;6.50;;;3.70;;
809;SDS011;387;48.772;9.186;2023-12-29T02:42:52;5.70;;;3.37;;
809;SDS011;387;48.772;9.186;2023-12-29T02:45:18;7.00;;;3.57;;
809;SDS011;387;48.772;9.186;2023-12-29T02:47:44;5.70;;;3.70;;
809;SDS011;387;48.772;9.186;2023-12-29T02:50:10;6.20;;;3.63;;
809;SDS011;387;48.772;9.186;2023-12-29T02:52:37;6.27;;;3.77;;
809;SDS011;387;48.772;9.186;2023-12-29T02:55:03;5.80;;;4.10;;
809;SDS011;387;48.772;9.186;2023-12-29T02:57:29;6.53;;;3.90;;
809;SDS011;387;48.772;9.186;2023-12-29T02:59:55;6.27;;;3.60;;
809;SDS011;387;48.772;9.186;2023-12-29T03:02:21;5.30;;;3.50;;
809;SDS011;387;48.772;9.186;2023-12-29T03:04:47;4.60;;;3.63;;
809;SDS011;387;48.772;9.186;2023-12-29T03:07:13;5.47;;;3.83;;
809;SDS011;387;48.772;9.186;2023-12-29T03:09:38;6.00;;;3.73;;
809;SDS011;387;48.772;9.186;2023-12-29T03:12:04;5.23;;;3.07;;
809;SDS011;387;48.772;9.186;2023-12-29T03:14:31;6.63;;;3.50;;
809;SDS011;387;48.772;9.186;2023-12-29T03:16:56;7.20;;;4.43;;
809;SDS011;387;48.772;9.186;2023-12-29T03:19:22;8.33;;;4.77;;
809;SDS011;387;48.772;9.186;2023-12-29T03:21:48;6.70;;;4.00;;
809;SDS011;387;48.772;9.186;2023-12-29T03:24:13;4.40;;;2.87;;
809;SDS011;387;48.772;9.186;2023-12-29T03:26:39;6.23;;;3.97;;
809;SDS011;387;48.772;9.186;2023-12-29T03:29:04;7.67;;;3.47;;
809;SDS011;387;48.772;9.186;2023-12-29T03:31:30;5.83;;;3.57;;
809;SDS011;387;48.772;9.186;2023-12-29T03:33:56;5.97;;;3.80;;
809;SDS011;387;48.772;9.186;2023-12-29T03:36:21;8.10;;;3.83;;
809;SDS011;387;48.772;9.186;2023-12-29T03:38:47;6.50;;;3.70;;
809;SDS011;387;48.772;9.186;2023-12-29T03:41:12;7.77;;;4.20;;
809;SDS011;387;48.772;9.186;2023-12-29T03:43:38;7.67;;;3.67;;
809;SDS011;387;48.772;9.186;2023-12-29T03:46:14;5.97;;;4.10;;
809;SDS011;387;48.772;9.186;2023-12-29T03:48:41;4.13;;;2.80;;
809;SDS011;387;48.772;9.186;2023-12-29T03:51:07;4.97;;;3.27;;
809;SDS011;387;48.772;9.186;2023-12-29T03:53:32;4.87;;;3.20;;
809;SDS011;387;48.772;9.186;2023-12-29T03:55:58;7.07;;;3.40;;
809;SDS011;387;48.772;9.186;2023-12-29T03:58:23;4.80;;;3.00;;
809;SDS011;387;48.772;9.186;2023-12-29T04:00:49;4.50;;;3.60;;
809;SDS011;387;48.772;9.186;2023-12-29T04:03:14;4.43;;;3.43;;
809;SDS011;387;48.772;9.186;2023-12-29T04:05:40;6.93;;;3.63;;
809;SDS011;387;48.772;9.186;2023-12-29T04:08:06;6.73;;;3.60;;
809;SDS011;387;48.772;9.186;2023-12-29T04:10:31;4.00;;;3.10;;
809;SDS011;387;48.772;9.186;2023-12-29T04:12:57;4.73;;;3.20;;
809;SDS011;387;48.772;9.186;2023-12-29T04:15:23;5.87;;;3.33;;
809;SDS011;387;48.772;9.186;2023-12-29T04:17:48;5.73;;;3.43;;
809;SDS011;387;48.772;9.186;2023-12-29T04:20:14;5.10;;;3.00;;
809;SDS011;387;48.772;9.186;2023-12-29T04:22:39;6.43;;;3.57;;
809;SDS011;387;48.772;9.186;2023-12-29T04:25:05;7.13;;;3.33;;
809;SDS011;387;48.772;9.186;2023-12-29T04:27:31;5.10;;;2.83;;
809;SDS011;387;48.772;9.186;2023-12-29T04:29:56;5.37;;;3.20;;
809;SDS011;387;48.772;9.186;2023-12-29T04:32:22;4.87;;;2.97;;
809;SDS011;387;48.772;9.186;2023-12-29T04:34:47;4.80;;;2.50;;
809;SDS011;387;48.772;9.186;2023-12-29T04:37:13;4.50;;;3.47;;
809;SDS011;387;48.772;9.186;2023-12-29T04:39:39;4.53;;;2.70;;
809;SDS011;387;48.772;9.186;2023-12-29T04:42:04;3.90;;;3.10;;
809;SDS011;387;48.772;9.186;2023-12-29T04:44:30;5.90;;;3.57;;
809;SDS011;387;48.772;9.186;2023-12-29T04:46:55;5.87;;;3.30;;
809;SDS011;387;48.772;9.186;2023-12-29T04:49:21;5.53;;;3.30;;
809;SDS011;387;48.772;9.186;2023-12-29T04:51:47;5.33;;;3.40;;
809;SDS011;387;48.772;9.186;2023-12-29T04:54:13;5.97;;;3.17;;
809;SDS011;387;48.772;9.186;2023-12-29T04:56:39;3.93;;;3.00;;
809;SDS011;387;48.772;9.186;2023-12-29T04:59:04;4.20;;;2.83;;
809;SDS011;387;48.772;9.186;2023-12-29T05:01:30;9.23;;;3.00;;
809;SDS011;387;48.772;9.186;2023-12-29T05:03:56;5.07;;;2.97;;
809;SDS011;387;48.772;9.186;2023-12-29T05:06:21;5.40;;;3.67;;
809;SDS011;387;48.772;9.186;2023-12-29T05:08:47;5.57;;;3.50;;
809;SDS011;387;48.772;9.186;2023-12-29T05:11:12;5.80;;;2.77;;
809;SDS011;387;48.772;9.186;2023-12-29T05:13:38;6.23;;;3.10;;
809;SDS011;387;48.772;9.186;2023-12-29T05:16:04;4.90;;;2.77;;
809;SDS011;387;48.772;9.186;2023-12-29T05:18:30;5.67;;;3.50;;
809;SDS011;387;48.772;9.186;2023-12-29T05:20:56;4.07;;;3.17;;
809;SDS011;387;48.772;9.186;2023-12-29T05:23:21;5.80;;;3.23;;
809;SDS011;387;48.772;9.186;2023-12-29T05:25:47;4.70;;;3.30;;
809;SDS011;387;48.772;9.186;2023-12-29T05:28:12;6.77;;;3.43;;
809;SDS011;387;48.772;9.186;2023-12-29T05:30:38;4.93;;;3.20;;
809;SDS011;387;48.772;9.186;2023-12-29T05:33:03;6.50;;;3.70;;
809;SDS011;387;48.772;9.186;2023-12-29T05:35:29;8.70;;;3.50;;
809;SDS011;387;48.772;9.186;2023-12-29T05:37:55;6.40;;;3.90;;
809;SDS011;387;48.772;9.186;2023-12-29T05:40:20;5.30;;;3.30;;
809;SDS011;387;48.772;9.186;2023-12-29T05:42:46;5.03;;;3.57;;
809;SDS011;387;48.772;9.186;2023-12-29T05:45:11;6.33;;;4.03;;
809;SDS011;387;48.772;9.186;2023-12-29T05:47:37;7.20;;;3.70;;
809;SDS011;387;48.772;9.186;2023-12-29T05:50:03;4.03;;;3.20;;
809;SDS011;387;48.772;9.186;2023-12-29T05:52:29;4.33;;;3.37;;
809;SDS011;387;48.772;9.186;2023-12-29T05:54:54;6.90;;;4.37;;
809;SDS011;387;48.772;9.186;2023-12-29T05:57:20;5.33;;;3.73;;
809;SDS011;387;48.772;9.186;2023-12-29T05:59:46;4.87;;;3.13;;
809;SDS011;387;48.772;9.186;2023-12-29T06:02:11;4.73;;;3.30;;
809;SDS011;387;48.772;9.186;2023-12-29T06:04:37;7.80;;;4.27;;
809;SDS011;387;48.772;9.186;2023-12-29T06:07:02;10.67;;;4.23;;
809;SDS011;387;48.772;9.186;2023-12-29T06:09:28;8.13;;;4.10;;
809;SDS011;387;48.772;9.186;2023-12-29T06:11:54;5.10;;;3.37;;
809;SDS011;387;48.772;9.186;2023-12-29T06:14:19;4.97;;;3.20;;
809;SDS011;387;48.772;9.186;2023-12-29T06:16:45;5.57;;;3.57;;
809;SDS011;387;48.772;9.186;2023-12-29T06:19:11;5.33;;;3.40;;
809;SDS011;387;48.772;9.186;2023-12-29T06:21:42;6.33;;;3.63;;
809;SDS011;387;48.772;9.186;2023-12-29T06:24:08;5.47;;;3.53;;
809;SDS011;387;48.772;9.186;2023-12-29T06:26:35;5.73;;;3.63;;
809;SDS011;387;48.772;9.186;2023-12-29T06:29:00;4.00;;;3.30;;
809;SDS011;387;48.772;9.186;2023-12-29T06:31:26;5.17;;;2.87;;
809;SDS011;387;48.772;9.186;2023-12-29T06:33:51;6.97;;;3.37;;
809;SDS011;387;48.772;9.186;2023-12-29T06:36:17;5.00;;;2.90;;
809;SDS011;387;48.772;9.186;2023-12-29T06:38:43;5.87;;;3.70;;
809;SDS011;387;48.772;9.186;2023-12-29T06:41:13;6.50;;;2.87;;
809;SDS011;387;48.772;9.186;2023-12-29T06:43:39;4.37;;;3.00;;
809;SDS011;387;48.772;9.186;2023-12-29T06:46:04;4.63;;;3.13;;
809;SDS011;387;48.772;9.186;2023-12-29T06:48:31;4.90;;;3.30;;
809;SDS011;387;48.772;9.186;2023-12-29T06:50:57;4.77;;;2.23;;
809;SDS011;387;48.772;9.186;2023-12-29T06:53:22;5.80;;;3.30;;
809;SDS011;387;48.772;9.186;2023-12-29T06:55:48;4.83;;;3.00;;
809;SDS011;387;48.772;9.186;2023-12-29T06:58:13;7.87;;;3.27;;
809;SDS011;387;48.772;9.186;2023-12-29T07:00:39;4.80;;;2.80;;
809;SDS011;387;48.772;9.186;2023-12-29T07:03:05;5.03;;;3.33;;
809;SDS011;387;48.772;9.186;2023-12-29T07:05:30;4.70;;;2.87;;
809;SDS011;387;48.772;9.186;2023-12-29T07:07:57;4.90;;;2.57;;
809;SDS011;387;48.772;9.186;2023-12-29T07:10:22;5.80;;;3.20;;
809;SDS011;387;48.772;9.186;2023-12-29T07:12:48;4.23;;;3.00;;
809;SDS011;387;48.772;9.186;2023-12-29T07:15:14;5.30;;;2.90;;
809;SDS011;387;48.772;9.186;2023-12-29T07:17:39;4.30;;;3.40;;
809;SDS011;387;48.772;9.186;2023-12-29T07:20:05;4.10;;;2.93;;
809;SDS011;387;48.772;9.186;2023-12-29T07:22:31;5.60;;;3.03;;
809;SDS011;387;48.772;9.186;2023-12-29T07:24:57;4.60;;;3.00;;
809;SDS011;387;48.772;9.186;2023-12-29T07:27:23;9.37;;;3.87;;
809;SDS011;387;48.772;9.186;2023-12-29T07:29:49;4.07;;;2.80;;
809;SDS011;387;48.772;9.186;2023-12-29T07:32:14;5.20;;;3.40;;
809;SDS011;387;48.772;9.186;2023-12-29T07:34:40;5.77;;;3.00;;
809;SDS011;387;48.772;9.186;2023-12-29T07:37:06;5.07;;;2.77;;
809;SDS011;387;48.772;9.186;2023-12-29T07:39:31;3.70;;;2.60;;
809;SDS011;387;48.772;9.186;2023-12-29T07:41:57;4.40;;;2.93;;
809;SDS011;387;48.772;9.186;2023-12-29T07:44:23;4.53;;;2.60;;
809;SDS011;387;48.772;9.186;2023-12-29T07:46:48;4.87;;;2.97;;
809;SDS011;387;48.772;9.186;2023-12-29T07:49:14;4.40;;;3.30;;
809;SDS011;387;48.772;9.186;2023-12-29T07:51:40;4.03;;;2.90;;
809;SDS011;387;48.772;9.186;2023-12-29T07:54:07;4.20;;;3.00;;
809;SDS011;387;48.772;9.186;2023-12-29T07:56:33;4.03;;;2.97;;
809;SDS011;387;48.772;9.186;2023-12-29T07:58:59;3.80;;;3.00;;
809;SDS011;387;48.772;9.186;2023-12-29T08:01:25;4.30;;;2.90;;
809;SDS011;387;48.772;9.186;2023-12-29T08:03:52;18.33;;;3.73;;
809;SDS011;387;48.772;9.186;2023-12-29T08:06:17;4.00;;;2.77;;
809;SDS011;387;48.772;9.186;2023-12-29T08:08:43;6.00;;;2.83;;
809;SDS011;387;48.772;9.186;2023-12-29T08:11:15;7.80;;;4.83;;
809;SDS011;387;48.772;9.186;2023-12-29T08:13:43;5.90;;;2.80;;
809;SDS011;387;48.772;9.186;2023-12-29T08:16:10;5.63;;;3.10;;
809;SDS011;387;48.772;9.186;2023-12-29T08:18:36;3.93;;;2.60;;
809;SDS011;387;48.772;9.186;2023-12-29T08:21:02;6.20;;;2.90;;
809;SDS011;387;48.772;9.186;2023-12-29T08:23:27;8.77;;;3.20;;
809;SDS011;387;48.772;9.186;2023-12-29T08:25:53;4.60;;;2.93;;
809;SDS011;387;48.772;9.186;2023-12-29T08:28:19;5.17;;;2.87;;
809;SDS011;387;48.772;9.186;2023-12-29T08:30:44;4.47;;;2.90;;
809;SDS011;387;48.772;9.186;2023-12-29T08:33:11;4.37;;;2.80;;
809;SDS011;387;48.772;9.186;2023-12-29T08:35:38;4.63;;;2.93;;
809;SDS011;387;48.772;9.186;2023-12-29T08:38:05;6.40;;;3.20;;
809;SDS011;387;48.772;9.186;2023-12-29T08:40:31;6.20;;;3.50;;
809;SDS011;387;48.772;9.186;2023-12-29T08:42:57;4.00;;;2.90;;
809;SDS011;387;48.772;9.186;2023-12-29T08:45:22;5.50;;;2.60;;
809;SDS011;387;48.772;9.186;2023-12-29T08:47:48;5.37;;;3.10;;
809;SDS011;387;48.772;9.186;2023-12-29T08:50:14;5.00;;;3.23;;
809;SDS011;387;48.772;9.186;2023-12-29T08:52:40;4.00;;;2.90;;
809;SDS011;387;48.772;9.186;2023-12-29T08:55:06;4.43;;;3.03;;
809;SDS011;387;48.772;9.186;2023-12-29T08:57:31;5.20;;;3.10;;
809;SDS011;387;48.772;9.186;2023-12-29T08:59:57;3.97;;;2.90;;
809;SDS011;387;48.772;9.186;2023-12-29T09:02:23;4.03;;;2.67;;
809;SDS011;387;48.772;9.186;2023-12-29T09:04:48;3.50;;;2.93;;
809;SDS011;387;48.772;9.186;2023-12-29T09:07:14;5.60;;;3.20;;
809;SDS011;387;48.772;9.186;2023-12-29T09:09:39;4.43;;;2.70;;
809;SDS011;387;48.772;9.186;2023-12-29T09:12:05;3.40;;;2.47;;
809;SDS011;387;48.772;9.186;2023-12-29T09:14:31;4.10;;;2.30;;
809;SDS011;387;48.772;9.186;2023-12-29T09:16:59;5.87;;;3.20;;
809;SDS011;387;48.772;9.186;2023-12-29T09:19:25;3.90;;;2.37;;
809;SDS011;387;48.772;9.186;2023-12-29T09:21:50;4.57;;;2.20;;
809;SDS011;387;48.772;9.186;2023-12-29T09:24:16;3.67;;;2.40;;
809;SDS011;387;48.772;9.186;2023-12-29T09:26:42;4.40;;;2.67;;
809;SDS011;387;48.772;9.186;2023-12-29T09:29:07;6.47;;;2.67;;
809;SDS011;387;48.772;9.186;2023-12-29T09:31:33;3.50;;;2.20;;
809;SDS011;387;48.772;9.186;2023-12-29T09:33:58;4.60;;;3.03;;
809;SDS011;387;48.772;9.186;2023-12-29T09:36:25;6.10;;;2.23;;
809;SDS011;387;48.772;9.186;2023-12-29T09:38:51;3.83;;;2.30;;
809;SDS011;387;48.772;9.186;2023-12-29T09:41:16;4.77;;;2.33;;
809;SDS011;387;48.772;9.186;2023-12-29T09:43:46;3.00;;;2.20;;
809;SDS011;387;48.772;9.186;2023-12-29T09:46:13;4.17;;;2.37;;
809;SDS011;387;48.772;9.186;2023-12-29T09:48:43;4.13;;;2.70;;
809;SDS011;387;48.772;9.186;2023-12-29T09:51:11;4.43;;;2.70;;
809;SDS011;387;48.772;9.186;2023-12-29T09:53:38;3.17;;;2.27;;
809;SDS011;387;48.772;9.186;2023-12-29T09:56:07;4.17;;;2.47;;
809;SDS011;387;48.772;9.186;2023-12-29T09:58:34;2.50;;;1.87;;
809;SDS011;387;48.772;9.186;2023-12-29T10:01:03;3.07;;;2.40;;
809;SDS011;387;48.772;9.186;2023-12-29T10:03:29;4.60;;;2.20;;
809;SDS011;387;48.772;9.186;2023-12-29T10:05:55;3.70;;;2.30;;
809;SDS011;387;48.772;9.186;2023-12-29T10:08:23;5.57;;;2.37;;
809;SDS011;387;48.772;9.186;2023-12-29T10:10:50;7.50;;;2.63;;
809;SDS011;387;48.772;9.186;2023-12-29T10:13:17;7.47;;;2.53;;
809;SDS011;387;48.772;9.186;2023-12-29T10:15:49;6.03;;;2.17;;
809;SDS011;387;48.772;9.186;2023-12-29T10:18:47;2.90;;;2.10;;
809;SDS011;387;48.772;9.186;2023-12-29T10:21:37;3.17;;;1.97;;
809;SDS011;387;48.772;9.186;2023-12-29T10:24:17;3.47;;;2.00;;
809;SDS011;387;48.772;9.186;2023-12-29T10:26:46;3.70;;;2.20;;
809;SDS011;387;48.772;9.186;2023-12-29T10:29:12;3.70;;;2.33;;
809;SDS011;387;48.772;9.186;2023-12-29T10:31:38;3.07;;;1.73;;
809;SDS011;387;48.772;9.186;2023-12-29T10:36:55;3.40;;;2.07;;
809;SDS011;387;48.772;9.186;2023-12-29T10:39:21;2.80;;;1.90;;
809;SDS011;387;48.772;9.186;2023-12-29T10:41:47;1.90;;;1.60;;
809;SDS011;387;48.772;9.186;2023-12-29T10:44:13;2.90;;;1.70;;
809;SDS011;387;48.772;9.186;2023-12-29T10:46:39;2.17;;;1.40;;
809;SDS011;387;48.772;9.186;2023-12-29T10:49:11;3.03;;;1.87;;
809;SDS011;387;48.772;9.186;2023-12-29T10:51:38;1.67;;;1.50;;
809;SDS011;387;48.772;9.186;2023-12-29T10:54:05;2.10;;;1.43;;
809;SDS011;387;48.772;9.186;2023-12-29T10:56:31;2.67;;;1.73;;
809;SDS011;387;48.772;9.186;2023-12-29T10:59:01;1.93;;;1.20;;
809;SDS011;387;48.772;9.186;2023-12-29T11:01:36;1.93;;;1.60;;
809;SDS011;387;48.772;9.186;2023-12-29T11:04:03;3.10;;;2.10;;
809;SDS011;387;48.772;9.186;2023-12-29T11:06:40;2.60;;;1.90;;
809;SDS011;387;48.772;9.186;2023-12-29T11:09:09;2.30;;;1.60;;
809;SDS011;387;48.772;9.186;2023-12-29T11:11:36;2.97;;;1.70;;
809;SDS011;387;48.772;9.186;2023-12-29T11:14:02;2.80;;;1.77;;
809;SDS011;387;48.772;9.186;2023-12-29T11:16:29;2.73;;;1.80;;
809;SDS011;387;48.772;9.186;2023-12-29T11:18:56;3.40;;;1.83;;
809;SDS011;387;48.772;9.186;2023-12-29T11:21:23;1.30;;;1.20;;
809;SDS011;387;48.772;9.186;2023-12-29T11:23:52;2.17;;;1.70;;
809;SDS011;387;48.772;9.186;2023-12-29T11:26:18;2.40;;;1.67;;
809;SDS011;387;48.772;9.186;2023-12-29T11:28:48;3.20;;;1.83;;
809;SDS011;387;48.772;9.186;2023-12-29T11:31:15;2.70;;;1.83;;
809;SDS011;387;48.772;9.186;2023-12-29T11:33:47;2.37;;;1.67;;
809;SDS011;387;48.772;9.186;2023-12-29T11:36:20;3.40;;;1.87;;
809;SDS011;387;48.772;9.186;2023-12-29T11:41:49;2.37;;;1.80;;
809;SDS011;387;48.772;9.186;2023-12-29T11:44:24;2.50;;;1.90;;
809;SDS011;387;48.772;9.186;2023-12-29T11:46:55;2.40;;;1.70;;
809;SDS011;387;48.772;9.186;2023-12-29T11:49:22;2.63;;;1.73;;
809;SDS011;387;48.772;9.186;2023-12-29T11:51:48;2.87;;;1.70;;
809;SDS011;387;48.772;9.186;2023-12-29T11:54:21;4.10;;;1.90;;
809;SDS011;387;48.772;9.186;2023-12-29T11:56:52;3.30;;;1.80;;
809;SDS011;387;48.772;9.186;2023-12-29T11:59:22;3.10;;;1.40;;
809;SDS011;387;48.772;9.186;2023-12-29T12:01:50;2.90;;;1.77;;
809;SDS011;387;48.772;9.186;2023-12-29T12:09:52;3.27;;;1.83;;
809;SDS011;387;48.772;9.186;2023-12-29T12:12:38;3.10;;;1.83;;
809;SDS011;387;48.772;9.186;2023-12-29T12:17:52;2.67;;;1.60;;
809;SDS011;387;48.772;9.186;2023-12-29T12:20:17;3.73;;;1.97;;
809;SDS011;387;48.772;9.186;2023-12-29T12:22:44;1.73;;;1.60;;
809;SDS011;387;48.772;9.186;2023-12-29T12:25:15;2.33;;;1.70;;
809;SDS011;387;48.772;9.186;2023-12-29T12:27:40;3.03;;;1.90;;
809;SDS011;387;48.772;9.186;2023-12-29T12:30:07;3.20;;;1.83;;
809;SDS011;387;48.772;9.186;2023-12-29T12:32:35;2.67;;;1.83;;
809;SDS011;387;48.772;9.186;2023-12-29T12:35:00;5.90;;;1.37;;
809;SDS011;387;48.772;9.186;2023-12-29T12:37:27;2.80;;;1.70;;
809;SDS011;387;48.772;9.186;2023-12-29T12:39:54;3.77;;;2.47;;
809;SDS011;387;48.772;9.186;2023-12-29T12:42:21;3.00;;;1.60;;
809;SDS011;387;48.772;9.186;2023-12-29T12:45:06;2.93;;;1.73;;
809;SDS011;387;48.772;9.186;2023-12-29T12:47:37;3.00;;;1.53;;
809;SDS011;387;48.772;9.186;2023-12-29T12:50:12;2.60;;;1.93;;
809;SDS011;387;48.772;9.186;2023-12-29T12:52:38;2.63;;;1.70;;
809;SDS011;387;48.772;9.186;2023-12-29T12:55:05;1.70;;;1.53;;
809;SDS011;387;48.772;9.186;2023-12-29T12:57:32;2.20;;;1.63;;
809;SDS011;387;48.772;9.186;2023-12-29T12:59:59;3.90;;;1.77;;
809;SDS011;387;48.772;9.186;2023-12-29T13:02:28;2.53;;;1.50;;
809;SDS011;387;48.772;9.186;2023-12-29T13:04:56;3.00;;;2.10;;
809;SDS011;387;48.772;9.186;2023-12-29T13:07:25;4.53;;;1.77;;
809;SDS011;387;48.772;9.186;2023-12-29T13:09:51;2.80;;;1.87;;
809;SDS011;387;48.772;9.186;2023-12-29T13:12:18;1.97;;;1.60;;
809;SDS011;387;48.772;9.186;2023-12-29T13:14:44;2.00;;;1.60;;
809;SDS011;387;48.772;9.186;2023-12-29T13:17:13;2.10;;;1.50;;
809;SDS011;387;48.772;9.186;2023-12-29T13:19:45;3.40;;;1.67;;
809;SDS011;387;48.772;9.186;2023-12-29T13:22:11;3.07;;;1.83;;
809;SDS011;387;48.772;9.186;2023-12-29T13:24:43;2.00;;;1.53;;
809;SDS011;387;48.772;9.186;2023-12-29T13:27:10;2.00;;;1.53;;
809;SDS011;387;48.772;9.186;2023-12-29T13:29:37;1.70;;;1.40;;
809;SDS011;387;48.772;9.186;2023-12-29T13:32:17;2.50;;;1.60;;
809;SDS011;387;48.772;9.186;2023-12-29T13:42:24;2.47;;;1.80;;
809;SDS011;387;48.772;9.186;2023-12-29T13:44:55;2.77;;;1.47;;
809;SDS011;387;48.772;9.186;2023-12-29T13:47:22;3.13;;;1.93;;
809;SDS011;387;48.772;9.186;2023-12-29T13:49:48;1.97;;;1.60;;
809;SDS011;387;48.772;9.186;2023-12-29T13:52:15;3.40;;;1.80;;
809;SDS011;387;48.772;9.186;2023-12-29T13:54:42;4.50;;;1.43;;
809;SDS011;387;48.772;9.186;2023-12-29T13:57:08;3.30;;;1.77;;
809;SDS011;387;48.772;9.186;2023-12-29T13:59:36;3.00;;;1.70;;
809;SDS011;387;48.772;9.186;2023-12-29T14:04:51;3.93;;;1.73;;
809;SDS011;387;48.772;9.186;2023-12-29T14:07:31;2.10;;;1.60;;
809;SDS011;387;48.772;9.186;2023-12-29T14:09:58;6.83;;;1.83;;
809;SDS011;387;48.772;9.186;2023-12-29T14:12:24;2.60;;;1.73;;
809;SDS011;387;48.772;9.186;2023-12-29T14:14:51;2.70;;;1.60;;
809;SDS011;387;48.772;9.186;2023-12-29T14:17:23;2.60;;;1.97;;
809;SDS011;387;48.772;9.186;2023-12-29T14:19:48;5.00;;;2.10;;
809;SDS011;387;48.772;9.186;2023-12-29T14:22:21;2.30;;;1.73;;
809;SDS011;387;48.772;9.186;2023-12-29T14:25:00;3.03;;;1.83;;
809;SDS011;387;48.772;9.186;2023-12-29T14:27:38;2.83;;;2.00;;
809;SDS011;387;48.772;9.186;2023-12-29T14:30:16;2.50;;;1.80;;
809;SDS011;387;48.772;9.186;2023-12-29T14:32:42;4.43;;;2.20;;
809;SDS011;387;48.772;9.186;2023-12-29T14:35:08;2.90;;;1.93;;
809;SDS011;387;48.772;9.186;2023-12-29T14:37:35;6.40;;;2.27;;
809;SDS011;387;48.772;9.186;2023-12-29T14:40:01;2.60;;;1.57;;
809;SDS011;387;48.772;9.186;2023-12-29T14:42:29;3.90;;;1.97;;
809;SDS011;387;48.772;9.186;2023-12-29T14:44:55;2.73;;;1.90;;
809;SDS011;387;48.772;9.186;2023-12-29T14:47:20;4.20;;;2.27;;
809;SDS011;387;48.772;9.186;2023-12-29T14:49:46;3.40;;;2.10;;
809;SDS011;387;48.772;9.186;2023-12-29T14:52:12;5.13;;;1.87;;
809;SDS011;387;48.772;9.186;2023-12-29T14:54:38;3.00;;;1.77;;
809;SDS011;387;48.772;9.186;2023-12-29T14:57:04;4.70;;;2.60;;
809;SDS011;387;48.772;9.186;2023-12-29T14:59:30;4.70;;;2.13;;
809;SDS011;387;48.772;9.186;2023-12-29T15:01:55;3.97;;;2.00;;
809;SDS011;387;48.772;9.186;2023-12-29T15:04:21;3.90;;;2.10;;
809;SDS011;387;48.772;9.186;2023-12-29T15:06:47;4.07;;;2.10;;
809;SDS011;387;48.772;9.186;2023-12-29T15:09:13;2.80;;;2.03;;
809;SDS011;387;48.772;9.186;2023-12-29T15:11:38;2.53;;;1.83;;
809;SDS011;387;48.772;9.186;2023-12-29T15:14:04;3.17;;;1.90;;
809;SDS011;387;48.772;9.186;2023-12-29T15:16:30;4.43;;;2.00;;
809;SDS011;387;48.772;9.186;2023-12-29T15:18:55;4.27;;;1.90;;
809;SDS011;387;48.772;9.186;2023-12-29T15:21:21;2.60;;;1.83;;
809;SDS011;387;48.772;9.186;2023-12-29T15:23:46;4.20;;;2.47;;
809;SDS011;387;48.772;9.186;2023-12-29T15:26:12;2.77;;;2.07;;
809;SDS011;387;48.772;9.186;2023-12-29T15:28:40;3.80;;;1.90;;
809;SDS011;387;48.772;9.186;2023-12-29T15:31:06;5.63;;;2.50;;
809;SDS011;387;48.772;9.186;2023-12-29T15:33:32;2.10;;;1.50;;
809;SDS011;387;48.772;9.186;2023-12-29T15:35:58;4.07;;;2.10;;
809;SDS011;387;48.772;9.186;2023-12-29T15:38:23;2.30;;;1.60;;
809;SDS011;387;48.772;9.186;2023-12-29T15:40:49;4.07;;;2.00;;
809;SDS011;387;48.772;9.186;2023-12-29T15:43:14;2.90;;;1.80;;
809;SDS011;387;48.772;9.186;2023-12-29T15:45:40;9.50;;;2.23;;
809;SDS011;387;48.772;9.186;2023-12-29T15:48:06;5.57;;;2.63;;
809;SDS011;387;48.772;9.186;2023-12-29T15:50:31;4.00;;;2.40;;
809;SDS011;387;48.772;9.186;2023-12-29T15:52:57;4.60;;;2.50;;
809;SDS011;387;48.772;9.186;2023-12-29T15:55:23;3.70;;;2.20;;
809;SDS011;387;48.772;9.186;2023-12-29T15:57:48;5.43;;;2.43;;
809;SDS011;387;48.772;9.186;2023-12-29T16:00:14;4.07;;;2.17;;
809;SDS011;387;48.772;9.186;2023-12-29T16:02:40;3.67;;;2.00;;
809;SDS011;387;48.772;9.186;2023-12-29T16:05:06;3.77;;;2.43;;
809;SDS011;387;48.772;9.186;2023-12-29T16:07:32;2.30;;;1.70;;
809;SDS011;387;48.772;9.186;2023-12-29T16:09:57;4.13;;;2.37;;
809;SDS011;387;48.772;9.186;2023-12-29T16:12:23;3.83;;;2.60;;
809;SDS011;387;48.772;9.186;2023-12-29T16:14:49;2.77;;;1.97;;